sensor_id;sensor_type;location;lat;lon;timestamp;temperature;humidity
40676;DHT22;26359;48.750;9.314;2022-07-05T00:00:10;19.10;99.90
40676;DHT22;26359;48.750;9.314;2022-07-05T00:02:36;19.10;99.90
40676;DHT22;26359;48.750;9.314;2022-07-05T00:05:02;19.10;99.90
40676;DHT22;26359;48.750;9.314;2022-07-05T00:07:28;19.10;99.90
40676;DHT22;26359;48.750;9.314;2022-07-05T00:09:55;19.10;99.90
40676;DHT22;26359;48.750;9.314;2022-07-05T00:12:28;19.10;99.90
40676;DHT22;26359;48.750;9.314;2022-07-05T00:14:54;19.00;99.90
40676;DHT22;26359;48.750;9.314;2022-07-05T00:17:20;18.90;99.90
40676;DHT22;26359;48.750;9.314;2022-07-05T00:19:45;18.80;99.90
40676;DHT22;26359;48.750;9.314;2022-07-05T00:22:11;18.70;99.90
40676;DHT22;26359;48.750;9.314;2022-07-05T00:24:37;18.70;99.90
40676;DHT22;26359;48.750;9.314;2022-07-05T00:27:02;18.70;99.90
40676;DHT22;26359;48.750;9.314;2022-07-05T00:29:28;18.80;99.90
40676;DHT22;26359;48.750;9.314;2022-07-05T00:31:54;18.80;99.90
40676;DHT22;26359;48.750;9.314;2022-07-05T00:34:20;18.70;99.90
40676;DHT22;26359;48.750;9.314;2022-07-05T00:36:46;18.70;99.90
40676;DHT22;26359;48.750;9.314;2022-07-05T00:39:11;18.60;99.90
40676;DHT22;26359;48.750;9.314;2022-07-05T00:41:37;18.60;99.90
40676;DHT22;26359;48.750;9.314;2022-07-05T00:44:08;18.60;99.90
40676;DHT22;26359;48.750;9.314;2022-07-05T00:46:34;18.60;99.90
40676;DHT22;26359;48.750;9.314;2022-07-05T00:49:01;18.50;99.90
40676;DHT22;26359;48.750;9.314;2022-07-05T00:51:29;18.50;99.90
40676;DHT22;26359;48.750;9.314;2022-07-05T00:53:55;18.50;99.90
40676;DHT22;26359;48.750;9.314;2022-07-05T00:56:23;18.50;99.90
40676;DHT22;26359;48.750;9.314;2022-07-05T00:58:49;18.40;99.90
40676;DHT22;26359;48.750;9.314;2022-07-05T01:01:15;18.40;99.90
40676;DHT22;26359;48.750;9.314;2022-07-05T01:03:42;18.40;99.90
40676;DHT22;26359;48.750;9.314;2022-07-05T01:06:09;18.40;99.90
40676;DHT22;26359;48.750;9.314;2022-07-05T01:08:38;18.30;99.90
40676;DHT22;26359;48.750;9.314;2022-07-05T01:11:04;18.30;99.90
40676;DHT22;26359;48.750;9.314;2022-07-05T01:13:30;18.30;99.90
40676;DHT22;26359;48.750;9.314;2022-07-05T01:15:56;18.20;99.90
40676;DHT22;26359;48.750;9.314;2022-07-05T01:18:22;18.20;99.90
40676;DHT22;26359;48.750;9.314;2022-07-05T01:20:51;18.20;99.90
40676;DHT22;26359;48.750;9.314;2022-07-05T01:23:20;18.20;99.90
40676;DHT22;26359;48.750;9.314;2022-07-05T01:25:47;18.10;99.90
40676;DHT22;26359;48.750;9.314;2022-07-05T01:28:13;18.10;99.90
40676;DHT22;26359;48.750;9.314;2022-07-05T01:30:39;18.10;99.90
40676;DHT22;26359;48.750;9.314;2022-07-05T01:33:06;18.00;99.90
40676;DHT22;26359;48.750;9.314;2022-07-05T01:35:33;18.00;99.90
40676;DHT22;26359;48.750;9.314;2022-07-05T01:37:59;18.00;99.90
40676;DHT22;26359;48.750;9.314;2022-07-05T01:40:24;18.00;99.90
40676;DHT22;26359;48.750;9.314;2022-07-05T01:42:50;17.90;99.90
40676;DHT22;26359;48.750;9.314;2022-07-05T01:45:16;17.90;99.90
40676;DHT22;26359;48.750;9.314;2022-07-05T01:48:04;17.90;99.90
40676;DHT22;26359;48.750;9.314;2022-07-05T01:50:33;17.90;99.90
40676;DHT22;26359;48.750;9.314;2022-07-05T01:53:01;17.90;99.90
40676;DHT22;26359;48.750;9.314;2022-07-05T01:55:28;17.90;99.90
40676;DHT22;26359;48.750;9.314;2022-07-05T01:57:54;17.80;99.90
40676;DHT22;26359;48.750;9.314;2022-07-05T02:00:19;17.80;99.90
40676;DHT22;26359;48.750;9.314;2022-07-05T02:02:46;17.70;99.90
40676;DHT22;26359;48.750;9.314;2022-07-05T02:05:11;17.60;99.90
40676;DHT22;26359;48.750;9.314;2022-07-05T02:07:37;17.60;99.90
40676;DHT22;26359;48.750;9.314;2022-07-05T02:10:11;17.60;99.90
40676;DHT22;26359;48.750;9.314;2022-07-05T02:12:36;17.60;99.90
40676;DHT22;26359;48.750;9.314;2022-07-05T02:15:02;17.60;99.90
40676;DHT22;26359;48.750;9.314;2022-07-05T02:17:27;17.60;99.90
40676;DHT22;26359;48.750;9.314;2022-07-05T02:19:53;17.50;99.90
40676;DHT22;26359;48.750;9.314;2022-07-05T02:22:18;17.50;99.90
40676;DHT22;26359;48.750;9.314;2022-07-05T02:24:44;17.50;99.90
40676;DHT22;26359;48.750;9.314;2022-07-05T02:27:09;17.40;99.90
40676;DHT22;26359;48.750;9.314;2022-07-05T02:29:35;17.50;99.90
40676;DHT22;26359;48.750;9.314;2022-07-05T02:32:01;17.40;99.90
40676;DHT22;26359;48.750;9.314;2022-07-05T02:34:26;17.40;99.90
40676;DHT22;26359;48.750;9.314;2022-07-05T02:36:52;17.40;99.90
40676;DHT22;26359;48.750;9.314;2022-07-05T02:39:17;17.40;99.90
40676;DHT22;26359;48.750;9.314;2022-07-05T02:41:43;17.40;99.90
40676;DHT22;26359;48.750;9.314;2022-07-05T02:44:08;17.30;99.90
40676;DHT22;26359;48.750;9.314;2022-07-05T02:46:34;17.20;99.90
40676;DHT22;26359;48.750;9.314;2022-07-05T02:48:59;17.20;99.90
40676;DHT22;26359;48.750;9.314;2022-07-05T02:51:25;17.20;99.90
40676;DHT22;26359;48.750;9.314;2022-07-05T02:53:51;17.20;99.90
40676;DHT22;26359;48.750;9.314;2022-07-05T02:56:16;17.20;99.90
40676;DHT22;26359;48.750;9.314;2022-07-05T02:58:42;17.20;99.90
40676;DHT22;26359;48.750;9.314;2022-07-05T03:01:07;17.20;99.90
40676;DHT22;26359;48.750;9.314;2022-07-05T03:03:33;17.20;99.90
40676;DHT22;26359;48.750;9.314;2022-07-05T03:05:58;17.20;99.90
40676;DHT22;26359;48.750;9.314;2022-07-05T03:08:24;17.20;99.90
40676;DHT22;26359;48.750;9.314;2022-07-05T03:10:49;17.10;99.90
40676;DHT22;26359;48.750;9.314;2022-07-05T03:13:15;17.10;99.90
40676;DHT22;26359;48.750;9.314;2022-07-05T03:15:41;17.00;99.90
40676;DHT22;26359;48.750;9.314;2022-07-05T03:18:07;17.00;99.90
40676;DHT22;26359;48.750;9.314;2022-07-05T03:20:33;17.00;99.90
40676;DHT22;26359;48.750;9.314;2022-07-05T03:22:58;17.00;99.90
40676;DHT22;26359;48.750;9.314;2022-07-05T03:25:24;17.00;99.90
40676;DHT22;26359;48.750;9.314;2022-07-05T03:27:50;17.00;99.90
40676;DHT22;26359;48.750;9.314;2022-07-05T03:30:16;17.00;99.90
40676;DHT22;26359;48.750;9.314;2022-07-05T03:32:41;17.00;99.90
40676;DHT22;26359;48.750;9.314;2022-07-05T03:35:07;16.90;99.90
40676;DHT22;26359;48.750;9.314;2022-07-05T03:37:33;16.90;99.90
40676;DHT22;26359;48.750;9.314;2022-07-05T03:39:58;16.90;99.90
40676;DHT22;26359;48.750;9.314;2022-07-05T03:42:24;16.80;99.90
40676;DHT22;26359;48.750;9.314;2022-07-05T03:44:49;16.80;99.90
40676;DHT22;26359;48.750;9.314;2022-07-05T03:47:15;16.80;99.90
40676;DHT22;26359;48.750;9.314;2022-07-05T03:49:40;16.80;99.90
40676;DHT22;26359;48.750;9.314;2022-07-05T03:52:06;16.80;99.90
40676;DHT22;26359;48.750;9.314;2022-07-05T03:54:31;16.80;99.90
40676;DHT22;26359;48.750;9.314;2022-07-05T03:56:57;16.80;99.90
40676;DHT22;26359;48.750;9.314;2022-07-05T03:59:22;16.80;99.90
40676;DHT22;26359;48.750;9.314;2022-07-05T04:01:48;16.80;99.90
40676;DHT22;26359;48.750;9.314;2022-07-05T04:04:13;16.80;99.90
40676;DHT22;26359;48.750;9.314;2022-07-05T04:06:39;16.80;99.90
40676;DHT22;26359;48.750;9.314;2022-07-05T04:09:05;16.80;99.90
40676;DHT22;26359;48.750;9.314;2022-07-05T04:11:30;16.80;99.90
40676;DHT22;26359;48.750;9.314;2022-07-05T04:13:56;16.90;99.90
40676;DHT22;26359;48.750;9.314;2022-07-05T04:16:21;16.90;99.90
40676;DHT22;26359;48.750;9.314;2022-07-05T04:18:47;16.90;99.90
40676;DHT22;26359;48.750;9.314;2022-07-05T04:21:13;16.90;99.90
40676;DHT22;26359;48.750;9.314;2022-07-05T04:23:38;17.00;99.90
40676;DHT22;26359;48.750;9.314;2022-07-05T04:26:04;17.00;99.90
40676;DHT22;26359;48.750;9.314;2022-07-05T04:28:29;16.90;99.90
40676;DHT22;26359;48.750;9.314;2022-07-05T04:30:56;16.90;99.90
40676;DHT22;26359;48.750;9.314;2022-07-05T04:33:22;16.90;99.90
40676;DHT22;26359;48.750;9.314;2022-07-05T04:35:47;16.90;99.90
40676;DHT22;26359;48.750;9.314;2022-07-05T04:38:13;16.90;99.90
40676;DHT22;26359;48.750;9.314;2022-07-05T04:40:39;16.90;99.90
40676;DHT22;26359;48.750;9.314;2022-07-05T04:43:06;17.00;99.90
40676;DHT22;26359;48.750;9.314;2022-07-05T04:45:32;17.00;99.90
40676;DHT22;26359;48.750;9.314;2022-07-05T04:47:57;17.00;99.90
40676;DHT22;26359;48.750;9.314;2022-07-05T04:50:23;17.00;99.90
40676;DHT22;26359;48.750;9.314;2022-07-05T04:52:49;17.10;99.90
40676;DHT22;26359;48.750;9.314;2022-07-05T04:55:14;17.10;99.90
40676;DHT22;26359;48.750;9.314;2022-07-05T04:57:40;17.10;99.90
40676;DHT22;26359;48.750;9.314;2022-07-05T05:00:08;17.20;99.90
40676;DHT22;26359;48.750;9.314;2022-07-05T05:02:34;17.20;99.90
40676;DHT22;26359;48.750;9.314;2022-07-05T05:04:59;17.30;99.90
40676;DHT22;26359;48.750;9.314;2022-07-05T05:07:25;17.20;99.90
40676;DHT22;26359;48.750;9.314;2022-07-05T05:09:51;17.10;99.90
40676;DHT22;26359;48.750;9.314;2022-07-05T05:12:16;17.00;99.90
40676;DHT22;26359;48.750;9.314;2022-07-05T05:14:42;17.00;99.90
40676;DHT22;26359;48.750;9.314;2022-07-05T05:17:07;17.00;99.90
40676;DHT22;26359;48.750;9.314;2022-07-05T05:19:33;17.00;99.90
40676;DHT22;26359;48.750;9.314;2022-07-05T05:21:58;17.00;99.90
40676;DHT22;26359;48.750;9.314;2022-07-05T05:24:24;17.00;99.90
40676;DHT22;26359;48.750;9.314;2022-07-05T05:26:49;17.10;99.90
40676;DHT22;26359;48.750;9.314;2022-07-05T05:29:16;17.00;99.90
40676;DHT22;26359;48.750;9.314;2022-07-05T05:31:42;17.00;99.90
40676;DHT22;26359;48.750;9.314;2022-07-05T05:34:07;17.00;99.90
40676;DHT22;26359;48.750;9.314;2022-07-05T05:36:33;17.00;99.90
40676;DHT22;26359;48.750;9.314;2022-07-05T05:38:59;17.10;99.90
40676;DHT22;26359;48.750;9.314;2022-07-05T05:41:24;17.20;99.90
40676;DHT22;26359;48.750;9.314;2022-07-05T05:43:50;17.30;99.90
40676;DHT22;26359;48.750;9.314;2022-07-05T05:46:15;17.30;99.90
40676;DHT22;26359;48.750;9.314;2022-07-05T05:48:41;17.40;99.90
40676;DHT22;26359;48.750;9.314;2022-07-05T05:51:06;17.40;99.90
40676;DHT22;26359;48.750;9.314;2022-07-05T05:53:32;17.50;99.90
40676;DHT22;26359;48.750;9.314;2022-07-05T05:55:57;17.60;99.90
40676;DHT22;26359;48.750;9.314;2022-07-05T05:58:23;17.60;99.90
40676;DHT22;26359;48.750;9.314;2022-07-05T06:00:49;17.60;99.90
40676;DHT22;26359;48.750;9.314;2022-07-05T06:03:22;17.70;99.90
40676;DHT22;26359;48.750;9.314;2022-07-05T06:05:47;17.70;99.90
40676;DHT22;26359;48.750;9.314;2022-07-05T06:08:13;17.80;99.90
40676;DHT22;26359;48.750;9.314;2022-07-05T06:10:39;17.90;99.90
40676;DHT22;26359;48.750;9.314;2022-07-05T06:13:07;17.90;99.90
40676;DHT22;26359;48.750;9.314;2022-07-05T06:15:33;17.90;99.90
40676;DHT22;26359;48.750;9.314;2022-07-05T06:17:59;18.00;99.90
40676;DHT22;26359;48.750;9.314;2022-07-05T06:20:30;18.00;99.90
40676;DHT22;26359;48.750;9.314;2022-07-05T06:22:57;18.10;99.90
40676;DHT22;26359;48.750;9.314;2022-07-05T06:25:23;18.20;99.90
40676;DHT22;26359;48.750;9.314;2022-07-05T06:27:54;18.20;99.90
40676;DHT22;26359;48.750;9.314;2022-07-05T06:30:21;18.20;99.90
40676;DHT22;26359;48.750;9.314;2022-07-05T06:32:48;18.20;99.90
40676;DHT22;26359;48.750;9.314;2022-07-05T06:35:15;18.30;99.90
40676;DHT22;26359;48.750;9.314;2022-07-05T06:38:04;18.40;99.90
40676;DHT22;26359;48.750;9.314;2022-07-05T06:40:36;18.40;99.90
40676;DHT22;26359;48.750;9.314;2022-07-05T06:43:05;18.50;99.90
40676;DHT22;26359;48.750;9.314;2022-07-05T06:45:31;18.50;99.90
40676;DHT22;26359;48.750;9.314;2022-07-05T06:47:58;18.60;99.90
40676;DHT22;26359;48.750;9.314;2022-07-05T06:50:25;18.70;99.90
40676;DHT22;26359;48.750;9.314;2022-07-05T06:52:51;18.70;99.90
40676;DHT22;26359;48.750;9.314;2022-07-05T06:55:16;18.80;99.90
40676;DHT22;26359;48.750;9.314;2022-07-05T06:57:42;18.80;99.90
40676;DHT22;26359;48.750;9.314;2022-07-05T07:00:09;18.90;99.90
40676;DHT22;26359;48.750;9.314;2022-07-05T07:02:35;18.90;99.90
40676;DHT22;26359;48.750;9.314;2022-07-05T07:05:01;19.10;99.90
40676;DHT22;26359;48.750;9.314;2022-07-05T07:07:26;19.10;99.90
40676;DHT22;26359;48.750;9.314;2022-07-05T07:10:10;19.10;99.90
40676;DHT22;26359;48.750;9.314;2022-07-05T07:12:36;19.10;99.90
40676;DHT22;26359;48.750;9.314;2022-07-05T07:15:02;19.30;99.90
40676;DHT22;26359;48.750;9.314;2022-07-05T07:17:27;19.40;99.90
40676;DHT22;26359;48.750;9.314;2022-07-05T07:19:54;19.50;99.90
40676;DHT22;26359;48.750;9.314;2022-07-05T07:22:20;19.50;99.90
40676;DHT22;26359;48.750;9.314;2022-07-05T07:24:45;19.60;99.90
40676;DHT22;26359;48.750;9.314;2022-07-05T07:27:11;19.80;99.90
40676;DHT22;26359;48.750;9.314;2022-07-05T07:29:38;19.80;99.90
40676;DHT22;26359;48.750;9.314;2022-07-05T07:32:05;19.80;99.90
40676;DHT22;26359;48.750;9.314;2022-07-05T07:34:32;19.90;99.90
40676;DHT22;26359;48.750;9.314;2022-07-05T07:36:58;19.90;99.90
40676;DHT22;26359;48.750;9.314;2022-07-05T07:39:25;19.90;99.90
40676;DHT22;26359;48.750;9.314;2022-07-05T07:41:51;20.00;99.90
40676;DHT22;26359;48.750;9.314;2022-07-05T07:44:17;20.10;99.90
40676;DHT22;26359;48.750;9.314;2022-07-05T07:46:43;20.20;99.90
40676;DHT22;26359;48.750;9.314;2022-07-05T07:49:09;20.20;99.90
40676;DHT22;26359;48.750;9.314;2022-07-05T07:51:35;20.40;99.90
40676;DHT22;26359;48.750;9.314;2022-07-05T07:54:01;20.40;99.90
40676;DHT22;26359;48.750;9.314;2022-07-05T07:56:27;20.50;99.90
40676;DHT22;26359;48.750;9.314;2022-07-05T07:58:52;20.50;99.90
40676;DHT22;26359;48.750;9.314;2022-07-05T08:01:18;20.60;99.90
40676;DHT22;26359;48.750;9.314;2022-07-05T08:03:44;20.50;99.90
40676;DHT22;26359;48.750;9.314;2022-07-05T08:06:10;20.50;99.90
40676;DHT22;26359;48.750;9.314;2022-07-05T08:08:40;20.60;99.90
40676;DHT22;26359;48.750;9.314;2022-07-05T08:11:11;20.80;99.90
40676;DHT22;26359;48.750;9.314;2022-07-05T08:13:37;21.00;99.90
40676;DHT22;26359;48.750;9.314;2022-07-05T08:16:03;21.10;99.90
40676;DHT22;26359;48.750;9.314;2022-07-05T08:18:29;21.20;99.90
40676;DHT22;26359;48.750;9.314;2022-07-05T08:21:13;21.20;99.90
40676;DHT22;26359;48.750;9.314;2022-07-05T08:23:58;21.30;99.90
40676;DHT22;26359;48.750;9.314;2022-07-05T08:26:24;21.30;99.90
40676;DHT22;26359;48.750;9.314;2022-07-05T08:28:49;21.30;99.90
40676;DHT22;26359;48.750;9.314;2022-07-05T08:31:15;21.50;99.90
40676;DHT22;26359;48.750;9.314;2022-07-05T08:33:40;21.50;99.90
40676;DHT22;26359;48.750;9.314;2022-07-05T08:36:06;21.60;99.90
40676;DHT22;26359;48.750;9.314;2022-07-05T08:38:32;21.70;99.90
40676;DHT22;26359;48.750;9.314;2022-07-05T08:40:57;21.90;99.90
40676;DHT22;26359;48.750;9.314;2022-07-05T08:43:23;21.90;99.90
40676;DHT22;26359;48.750;9.314;2022-07-05T08:45:50;21.90;99.90
40676;DHT22;26359;48.750;9.314;2022-07-05T08:48:16;22.00;99.90
40676;DHT22;26359;48.750;9.314;2022-07-05T08:50:43;22.10;99.90
40676;DHT22;26359;48.750;9.314;2022-07-05T08:53:09;22.10;99.90
40676;DHT22;26359;48.750;9.314;2022-07-05T08:55:35;22.10;99.90
40676;DHT22;26359;48.750;9.314;2022-07-05T08:58:02;22.20;99.90
40676;DHT22;26359;48.750;9.314;2022-07-05T09:00:28;22.20;99.90
40676;DHT22;26359;48.750;9.314;2022-07-05T09:02:54;22.40;99.90
40676;DHT22;26359;48.750;9.314;2022-07-05T09:05:20;22.40;99.90
40676;DHT22;26359;48.750;9.314;2022-07-05T09:07:58;22.50;99.90
40676;DHT22;26359;48.750;9.314;2022-07-05T09:10:29;22.50;99.90
40676;DHT22;26359;48.750;9.314;2022-07-05T09:12:56;22.60;99.90
40676;DHT22;26359;48.750;9.314;2022-07-05T09:15:23;22.60;99.90
40676;DHT22;26359;48.750;9.314;2022-07-05T09:17:48;22.60;99.90
40676;DHT22;26359;48.750;9.314;2022-07-05T09:20:16;22.70;99.90
40676;DHT22;26359;48.750;9.314;2022-07-05T09:25:18;22.70;99.90
40676;DHT22;26359;48.750;9.314;2022-07-05T09:27:56;22.70;99.90
40676;DHT22;26359;48.750;9.314;2022-07-05T09:30:31;22.90;99.90
40676;DHT22;26359;48.750;9.314;2022-07-05T09:33:11;23.00;99.90
40676;DHT22;26359;48.750;9.314;2022-07-05T09:35:40;23.20;99.90
40676;DHT22;26359;48.750;9.314;2022-07-05T09:38:07;23.20;99.90
40676;DHT22;26359;48.750;9.314;2022-07-05T09:40:59;23.40;99.90
40676;DHT22;26359;48.750;9.314;2022-07-05T09:43:28;23.60;99.90
40676;DHT22;26359;48.750;9.314;2022-07-05T09:46:04;23.80;99.90
40676;DHT22;26359;48.750;9.314;2022-07-05T09:48:32;23.80;99.90
40676;DHT22;26359;48.750;9.314;2022-07-05T09:51:08;23.80;99.90
40676;DHT22;26359;48.750;9.314;2022-07-05T09:53:47;23.80;99.90
40676;DHT22;26359;48.750;9.314;2022-07-05T09:56:13;24.00;99.90
40676;DHT22;26359;48.750;9.314;2022-07-05T09:58:43;24.10;99.90
40676;DHT22;26359;48.750;9.314;2022-07-05T10:01:30;24.10;99.90
40676;DHT22;26359;48.750;9.314;2022-07-05T10:03:58;24.00;99.90
40676;DHT22;26359;48.750;9.314;2022-07-05T10:06:25;24.10;99.90
40676;DHT22;26359;48.750;9.314;2022-07-05T10:08:52;24.20;99.90
40676;DHT22;26359;48.750;9.314;2022-07-05T10:11:18;24.20;99.90
40676;DHT22;26359;48.750;9.314;2022-07-05T10:13:51;24.20;99.90
40676;DHT22;26359;48.750;9.314;2022-07-05T10:16:18;24.30;99.90
40676;DHT22;26359;48.750;9.314;2022-07-05T10:18:46;24.40;99.90
40676;DHT22;26359;48.750;9.314;2022-07-05T10:21:16;24.40;99.90
40676;DHT22;26359;48.750;9.314;2022-07-05T10:23:48;24.60;99.90
40676;DHT22;26359;48.750;9.314;2022-07-05T10:26:16;24.70;99.90
40676;DHT22;26359;48.750;9.314;2022-07-05T10:28:45;24.80;99.50
40676;DHT22;26359;48.750;9.314;2022-07-05T10:31:13;24.80;99.90
40676;DHT22;26359;48.750;9.314;2022-07-05T10:33:39;24.90;98.60
40676;DHT22;26359;48.750;9.314;2022-07-05T10:36:07;25.00;99.00
40676;DHT22;26359;48.750;9.314;2022-07-05T10:38:37;25.10;99.20
40676;DHT22;26359;48.750;9.314;2022-07-05T10:41:05;25.20;99.90
40676;DHT22;26359;48.750;9.314;2022-07-05T10:43:31;25.40;99.90
40676;DHT22;26359;48.750;9.314;2022-07-05T10:45:57;25.50;99.90
40676;DHT22;26359;48.750;9.314;2022-07-05T10:48:25;25.40;99.90
40676;DHT22;26359;48.750;9.314;2022-07-05T10:51:01;25.40;96.80
40676;DHT22;26359;48.750;9.314;2022-07-05T11:06:28;25.90;94.20
40676;DHT22;26359;48.750;9.314;2022-07-05T11:11:36;25.80;95.00
40676;DHT22;26359;48.750;9.314;2022-07-05T11:14:03;26.00;96.10
40676;DHT22;26359;48.750;9.314;2022-07-05T11:16:32;26.40;94.20
40676;DHT22;26359;48.750;9.314;2022-07-05T11:19:05;26.60;94.90
40676;DHT22;26359;48.750;9.314;2022-07-05T11:21:31;26.70;95.30
40676;DHT22;26359;48.750;9.314;2022-07-05T11:24:22;26.80;92.10
40676;DHT22;26359;48.750;9.314;2022-07-05T11:26:50;26.70;92.90
40676;DHT22;26359;48.750;9.314;2022-07-05T11:29:40;26.80;94.50
40676;DHT22;26359;48.750;9.314;2022-07-05T11:32:16;26.80;95.40
40676;DHT22;26359;48.750;9.314;2022-07-05T11:34:44;26.90;92.90
40676;DHT22;26359;48.750;9.314;2022-07-05T11:39:45;26.70;90.90
40676;DHT22;26359;48.750;9.314;2022-07-05T11:42:20;26.80;93.70
40676;DHT22;26359;48.750;9.314;2022-07-05T11:44:49;26.90;94.50
40676;DHT22;26359;48.750;9.314;2022-07-05T11:47:16;27.20;92.00
40676;DHT22;26359;48.750;9.314;2022-07-05T11:49:53;27.40;91.10
40676;DHT22;26359;48.750;9.314;2022-07-05T11:52:25;27.40;92.60
40676;DHT22;26359;48.750;9.314;2022-07-05T11:54:51;27.40;92.20
40676;DHT22;26359;48.750;9.314;2022-07-05T11:57:18;27.50;92.70
40676;DHT22;26359;48.750;9.314;2022-07-05T11:59:44;27.60;89.80
40676;DHT22;26359;48.750;9.314;2022-07-05T12:02:10;27.40;86.70
40676;DHT22;26359;48.750;9.314;2022-07-05T12:04:35;27.30;89.50
40676;DHT22;26359;48.750;9.314;2022-07-05T12:07:01;27.40;90.50
40676;DHT22;26359;48.750;9.314;2022-07-05T12:09:31;27.60;91.40
40676;DHT22;26359;48.750;9.314;2022-07-05T12:12:22;27.70;91.40
40676;DHT22;26359;48.750;9.314;2022-07-05T12:15:07;27.70;90.80
40676;DHT22;26359;48.750;9.314;2022-07-05T12:17:37;27.70;91.00
40676;DHT22;26359;48.750;9.314;2022-07-05T12:20:07;27.40;90.00
40676;DHT22;26359;48.750;9.314;2022-07-05T12:22:42;27.60;90.50
40676;DHT22;26359;48.750;9.314;2022-07-05T12:25:11;27.70;90.70
40676;DHT22;26359;48.750;9.314;2022-07-05T12:27:39;27.80;87.10
40676;DHT22;26359;48.750;9.314;2022-07-05T12:30:06;27.80;90.60
40676;DHT22;26359;48.750;9.314;2022-07-05T12:32:32;27.90;90.70
40676;DHT22;26359;48.750;9.314;2022-07-05T12:34:59;28.00;84.00
40676;DHT22;26359;48.750;9.314;2022-07-05T12:37:27;28.20;90.10
40676;DHT22;26359;48.750;9.314;2022-07-05T12:40:04;28.30;89.60
40676;DHT22;26359;48.750;9.314;2022-07-05T12:42:34;28.40;89.80
40676;DHT22;26359;48.750;9.314;2022-07-05T12:45:09;28.30;86.50
40676;DHT22;26359;48.750;9.314;2022-07-05T12:50:13;28.30;87.50
40676;DHT22;26359;48.750;9.314;2022-07-05T12:53:06;28.10;86.30
40676;DHT22;26359;48.750;9.314;2022-07-05T12:55:57;28.10;90.50
40676;DHT22;26359;48.750;9.314;2022-07-05T12:58:50;28.40;91.00
40676;DHT22;26359;48.750;9.314;2022-07-05T13:01:20;28.40;90.50
40676;DHT22;26359;48.750;9.314;2022-07-05T13:04:15;28.40;90.00
40676;DHT22;26359;48.750;9.314;2022-07-05T13:06:57;28.40;85.90
40676;DHT22;26359;48.750;9.314;2022-07-05T13:12:18;28.10;90.10
40676;DHT22;26359;48.750;9.314;2022-07-05T13:14:51;28.00;91.00
40676;DHT22;26359;48.750;9.314;2022-07-05T13:17:22;28.10;90.90
40676;DHT22;26359;48.750;9.314;2022-07-05T13:19:49;28.40;90.50
40676;DHT22;26359;48.750;9.314;2022-07-05T13:22:15;28.50;86.10
40676;DHT22;26359;48.750;9.314;2022-07-05T13:24:42;28.60;87.70
40676;DHT22;26359;48.750;9.314;2022-07-05T13:27:08;28.80;89.20
40676;DHT22;26359;48.750;9.314;2022-07-05T13:29:35;28.50;89.70
40676;DHT22;26359;48.750;9.314;2022-07-05T13:32:00;28.30;88.00
40676;DHT22;26359;48.750;9.314;2022-07-05T13:34:26;28.10;90.30
40676;DHT22;26359;48.750;9.314;2022-07-05T13:36:52;28.10;89.40
40676;DHT22;26359;48.750;9.314;2022-07-05T13:39:19;27.80;85.70
40676;DHT22;26359;48.750;9.314;2022-07-05T13:41:47;27.50;88.50
40676;DHT22;26359;48.750;9.314;2022-07-05T13:44:12;27.40;90.90
40676;DHT22;26359;48.750;9.314;2022-07-05T13:46:38;27.50;92.40
40676;DHT22;26359;48.750;9.314;2022-07-05T13:49:03;28.00;91.20
40676;DHT22;26359;48.750;9.314;2022-07-05T13:51:29;28.30;88.70
40676;DHT22;26359;48.750;9.314;2022-07-05T13:53:55;28.30;90.20
40676;DHT22;26359;48.750;9.314;2022-07-05T13:56:21;28.30;85.70
40676;DHT22;26359;48.750;9.314;2022-07-05T13:58:46;28.30;88.20
40676;DHT22;26359;48.750;9.314;2022-07-05T14:01:13;28.20;89.50
40676;DHT22;26359;48.750;9.314;2022-07-05T14:03:38;28.40;89.30
40676;DHT22;26359;48.750;9.314;2022-07-05T14:06:04;28.50;86.20
40676;DHT22;26359;48.750;9.314;2022-07-05T14:08:30;28.50;86.80
40676;DHT22;26359;48.750;9.314;2022-07-05T14:10:56;28.30;85.40
40676;DHT22;26359;48.750;9.314;2022-07-05T14:13:23;28.40;88.60
40676;DHT22;26359;48.750;9.314;2022-07-05T14:15:50;28.20;86.80
40676;DHT22;26359;48.750;9.314;2022-07-05T14:18:16;28.30;90.60
40676;DHT22;26359;48.750;9.314;2022-07-05T14:20:43;28.10;86.40
40676;DHT22;26359;48.750;9.314;2022-07-05T14:23:12;28.00;85.50
40676;DHT22;26359;48.750;9.314;2022-07-05T14:25:40;27.90;86.20
40676;DHT22;26359;48.750;9.314;2022-07-05T14:28:06;27.80;86.40
40676;DHT22;26359;48.750;9.314;2022-07-05T14:30:35;27.80;84.90
40676;DHT22;26359;48.750;9.314;2022-07-05T14:33:02;28.00;90.20
40676;DHT22;26359;48.750;9.314;2022-07-05T14:35:28;28.10;88.20
40676;DHT22;26359;48.750;9.314;2022-07-05T14:37:56;28.10;88.10
40676;DHT22;26359;48.750;9.314;2022-07-05T14:40:22;28.20;87.40
40676;DHT22;26359;48.750;9.314;2022-07-05T14:42:54;28.10;87.60
40676;DHT22;26359;48.750;9.314;2022-07-05T14:45:20;28.30;86.70
40676;DHT22;26359;48.750;9.314;2022-07-05T14:47:46;28.40;89.40
40676;DHT22;26359;48.750;9.314;2022-07-05T14:50:12;28.50;90.00
40676;DHT22;26359;48.750;9.314;2022-07-05T14:52:38;28.50;89.10
40676;DHT22;26359;48.750;9.314;2022-07-05T14:55:04;28.60;85.20
40676;DHT22;26359;48.750;9.314;2022-07-05T14:57:29;28.60;85.60
40676;DHT22;26359;48.750;9.314;2022-07-05T14:59:55;28.50;86.10
40676;DHT22;26359;48.750;9.314;2022-07-05T15:02:21;28.50;89.10
40676;DHT22;26359;48.750;9.314;2022-07-05T15:04:46;28.50;83.00
40676;DHT22;26359;48.750;9.314;2022-07-05T15:07:12;28.40;86.80
40676;DHT22;26359;48.750;9.314;2022-07-05T15:09:37;28.20;85.90
40676;DHT22;26359;48.750;9.314;2022-07-05T15:12:03;28.00;88.00
40676;DHT22;26359;48.750;9.314;2022-07-05T15:14:29;27.50;83.60
40676;DHT22;26359;48.750;9.314;2022-07-05T15:16:55;27.30;83.00
40676;DHT22;26359;48.750;9.314;2022-07-05T15:19:24;27.20;85.70
40676;DHT22;26359;48.750;9.314;2022-07-05T15:21:50;27.20;87.30
40676;DHT22;26359;48.750;9.314;2022-07-05T15:24:16;27.30;87.40
40676;DHT22;26359;48.750;9.314;2022-07-05T15:26:45;27.50;88.80
40676;DHT22;26359;48.750;9.314;2022-07-05T15:29:11;27.60;88.00
40676;DHT22;26359;48.750;9.314;2022-07-05T15:31:37;27.80;85.30
40676;DHT22;26359;48.750;9.314;2022-07-05T15:34:04;27.90;82.50
40676;DHT22;26359;48.750;9.314;2022-07-05T15:36:30;27.90;82.00
40676;DHT22;26359;48.750;9.314;2022-07-05T15:39:01;27.80;87.80
40676;DHT22;26359;48.750;9.314;2022-07-05T15:41:28;28.00;84.00
40676;DHT22;26359;48.750;9.314;2022-07-05T15:43:54;28.10;87.60
40676;DHT22;26359;48.750;9.314;2022-07-05T15:46:20;28.20;83.00
40676;DHT22;26359;48.750;9.314;2022-07-05T15:48:45;28.30;82.60
40676;DHT22;26359;48.750;9.314;2022-07-05T15:51:13;28.30;82.40
40676;DHT22;26359;48.750;9.314;2022-07-05T15:53:39;28.30;83.80
40676;DHT22;26359;48.750;9.314;2022-07-05T15:56:05;28.40;87.10
40676;DHT22;26359;48.750;9.314;2022-07-05T15:58:31;28.40;85.20